createdAt,value
2019-04-21T00:00:35.526Z,0.00
2019-04-21T00:01:38.757Z,0.00
2019-04-21T00:02:37.744Z,0.00
2019-04-21T00:03:40.772Z,0.00
2019-04-21T00:04:48.446Z,0.00
2019-04-21T00:05:52.402Z,0.00
2019-04-21T00:06:56.971Z,0.00
2019-04-21T00:07:52.808Z,0.00
2019-04-21T00:08:56.474Z,0.00
2019-04-21T00:10:16.731Z,0.00
2019-04-21T00:10:56.713Z,0.00
2019-04-21T00:11:55.706Z,0.00
2019-04-21T00:12:53.337Z,0.00
2019-04-21T00:13:46.992Z,0.00
2019-04-21T00:14:46.073Z,0.00
2019-04-21T00:15:40.799Z,0.00
2019-04-21T00:16:43.223Z,0.00
2019-04-21T00:17:34.740Z,0.00
2019-04-21T00:18:41.778Z,0.00
2019-04-21T00:19:36.703Z,0.00
2019-04-21T00:20:40.910Z,0.00
2019-04-21T00:21:40.435Z,0.00
2019-04-21T00:22:45.487Z,0.00
2019-04-21T00:23:49.938Z,0.00
2019-04-21T00:24:46.218Z,0.00
2019-04-21T00:25:46.017Z,0.00
2019-04-21T00:26:50.808Z,0.00
2019-04-21T00:27:47.816Z,0.00
2019-04-21T00:29:02.276Z,0.00
2019-04-21T00:29:49.870Z,0.00
2019-04-21T00:30:50.927Z,0.00
2019-04-21T00:31:45.837Z,0.00
2019-04-21T00:32:46.040Z,0.00
2019-04-21T00:33:35.624Z,0.00
2019-04-21T00:34:32.141Z,0.00
2019-04-21T00:35:42.595Z,0.00
2019-04-21T00:36:42.850Z,0.00
2019-04-21T00:37:53.412Z,0.00
2019-04-21T00:39:00.411Z,0.00
2019-04-21T00:40:53.872Z,0.00
2019-04-21T00:41:53.736Z,0.00
2019-04-21T00:42:48.905Z,0.00
2019-04-21T00:43:44.764Z,0.00
2019-04-21T00:44:44.288Z,0.00
2019-04-21T00:45:41.809Z,0.00
2019-04-21T00:46:44.882Z,0.00
2019-04-21T00:47:46.308Z,0.00
2019-04-21T00:48:54.037Z,0.00
2019-04-21T00:49:52.715Z,0.00
2019-04-21T00:51:03.359Z,0.00
2019-04-21T00:52:17.519Z,0.00
2019-04-21T00:52:58.233Z,0.00
2019-04-21T00:53:51.149Z,0.00
2019-04-21T00:54:57.816Z,0.00
2019-04-21T00:55:53.443Z,0.00
2019-04-21T00:56:56.959Z,0.00
2019-04-21T00:58:56.085Z,0.00
2019-04-21T00:59:52.583Z,0.00
2019-04-21T01:00:51.128Z,0.00
2019-04-21T01:01:47.718Z,0.00
2019-04-21T01:03:55.120Z,0.00
2019-04-21T01:04:49.510Z,0.00
2019-04-21T01:05:52.864Z,0.00
2019-04-21T01:06:55.645Z,0.00
2019-04-21T01:07:46.990Z,0.00
2019-04-21T01:08:46.785Z,0.00
2019-04-21T01:09:45.330Z,0.00
2019-04-21T01:10:38.354Z,0.00
2019-04-21T01:11:51.462Z,0.00
2019-04-21T01:12:49.563Z,0.00
2019-04-21T01:13:51.749Z,0.00
2019-04-21T01:14:58.250Z,0.00
2019-04-21T01:16:56.051Z,0.00
2019-04-21T01:17:53.259Z,0.00
2019-04-21T01:18:51.871Z,0.00
2019-04-21T01:19:46.888Z,0.00
2019-04-21T01:20:27.576Z,0.00
2019-04-21T01:21:27.487Z,0.00
2019-04-21T01:22:27.450Z,0.00
2019-04-21T01:23:27.586Z,0.00
2019-04-21T01:24:33.061Z,0.00
2019-04-21T01:25:32.127Z,0.00
2019-04-21T01:26:39.320Z,0.00
2019-04-21T01:27:50.768Z,0.00
2019-04-21T01:28:44.838Z,0.00
2019-04-21T01:29:46.018Z,0.00
2019-04-21T01:30:45.143Z,0.00
2019-04-21T01:31:42.125Z,0.00
2019-04-21T01:32:48.174Z,0.00
2019-04-21T01:33:50.674Z,0.00
2019-04-21T01:34:45.422Z,0.00
2019-04-21T01:35:50.982Z,0.00
2019-04-21T01:36:45.797Z,0.00
2019-04-21T01:37:52.455Z,0.00
2019-04-21T01:38:48.304Z,0.00
2019-04-21T01:39:46.957Z,0.00
2019-04-21T01:40:45.050Z,0.00
2019-04-21T01:41:52.549Z,0.00
2019-04-21T01:42:49.425Z,0.00
2019-04-21T01:43:45.142Z,0.00
2019-04-21T01:44:46.206Z,0.00
2019-04-21T01:45:44.841Z,0.00
2019-04-21T01:46:42.251Z,0.00
2019-04-21T01:47:40.890Z,0.00
2019-04-21T01:48:40.017Z,0.00
2019-04-21T01:49:37.071Z,0.00
2019-04-21T01:50:40.908Z,0.00
2019-04-21T01:51:59.679Z,0.00
2019-04-21T01:52:50.236Z,0.00
2019-04-21T01:53:48.314Z,0.00
2019-04-21T01:54:48.112Z,0.00
2019-04-21T01:55:43.134Z,0.00
2019-04-21T01:56:46.557Z,0.00
2019-04-21T01:57:42.639Z,0.00
2019-04-21T01:58:36.317Z,0.00
2019-04-21T01:59:34.958Z,0.00
2019-04-21T02:00:39.020Z,0.00
2019-04-21T02:01:46.035Z,0.00
2019-04-21T02:02:47.698Z,0.00
2019-04-21T02:04:47.429Z,0.00
2019-04-21T02:05:56.991Z,0.00
2019-04-21T02:06:45.613Z,0.00
2019-04-21T02:07:47.448Z,0.00
2019-04-21T02:08:41.828Z,0.00
2019-04-21T02:09:42.003Z,0.00
2019-04-21T02:10:47.972Z,0.00
2019-04-21T02:11:53.354Z,0.00
2019-04-21T02:12:48.819Z,0.00
2019-04-21T02:13:50.209Z,0.00
2019-04-21T02:14:54.417Z,0.00
2019-04-21T02:15:48.935Z,0.00
2019-04-21T02:16:43.424Z,0.00
2019-04-21T02:17:45.896Z,0.00
2019-04-21T02:18:39.097Z,0.00
2019-04-21T02:19:37.824Z,0.00
2019-04-21T02:20:34.190Z,0.00
2019-04-21T02:21:38.288Z,0.00
2019-04-21T02:22:57.499Z,0.00
2019-04-21T02:23:50.925Z,0.00
2019-04-21T02:24:53.372Z,0.00
2019-04-21T02:25:44.193Z,0.00
2019-04-21T02:26:41.527Z,0.00
2019-04-21T02:27:42.874Z,0.00
2019-04-21T02:28:54.267Z,0.00
2019-04-21T02:29:49.761Z,0.00
2019-04-21T02:31:03.006Z,0.00
2019-04-21T02:32:00.360Z,0.00
2019-04-21T02:35:04.209Z,0.00
2019-04-21T02:39:00.271Z,0.00
2019-04-21T02:40:01.542Z,0.00
2019-04-21T02:42:01.747Z,0.00
2019-04-21T02:43:02.743Z,0.00
2019-04-21T02:43:56.083Z,0.00
2019-04-21T02:44:51.698Z,0.00
2019-04-21T02:46:54.261Z,0.00
2019-04-21T02:47:59.105Z,0.00
2019-04-21T02:48:56.440Z,0.00
2019-04-21T02:50:01.944Z,0.00
2019-04-21T02:51:04.750Z,0.00
2019-04-21T02:51:54.885Z,0.00
2019-04-21T02:54:28.787Z,0.00
2019-04-21T02:54:54.042Z,0.00
2019-04-21T02:55:51.220Z,0.00
2019-04-21T02:56:53.429Z,0.00
2019-04-21T02:57:49.795Z,0.00
2019-04-21T02:58:51.197Z,0.00
2019-04-21T03:00:06.894Z,0.00
2019-04-21T03:00:59.670Z,0.00
2019-04-21T03:02:04.494Z,0.00
2019-04-21T03:02:55.380Z,0.00
2019-04-21T03:04:53.364Z,0.00
2019-04-21T03:05:52.982Z,0.00
2019-04-21T03:06:56.363Z,0.00
2019-04-21T03:07:55.457Z,0.00
2019-04-21T03:09:45.936Z,0.00
2019-04-21T03:10:56.778Z,0.00
2019-04-21T03:12:01.508Z,0.00
2019-04-21T03:12:44.117Z,0.00
2019-04-21T03:14:58.183Z,0.00
2019-04-21T03:16:04.978Z,0.00
2019-04-21T03:16:40.577Z,0.00
2019-04-21T03:17:48.717Z,0.00
2019-04-21T03:18:52.502Z,0.00
2019-04-21T03:19:51.945Z,0.00
2019-04-21T03:20:53.252Z,0.00
2019-04-21T03:21:50.599Z,0.00
2019-04-21T03:23:16.634Z,0.00
2019-04-21T03:25:04.545Z,0.00
2019-04-21T03:29:08.375Z,0.00
2019-04-21T03:35:25.944Z,0.00
2019-04-21T03:36:24.603Z,0.00
2019-04-21T03:37:42.511Z,0.00
2019-04-21T03:38:43.137Z,0.00
2019-04-21T03:39:52.779Z,0.00
2019-04-21T03:40:40.959Z,0.00
2019-04-21T03:42:01.886Z,0.00
2019-04-21T03:43:52.632Z,0.00
2019-04-21T03:44:45.313Z,0.00
2019-04-21T03:46:47.524Z,0.00
2019-04-21T03:47:43.514Z,4.00
2019-04-21T03:48:51.692Z,4.00
2019-04-21T03:49:56.434Z,4.00
2019-04-21T03:50:56.317Z,0.00
2019-04-21T03:51:50.530Z,4.00
2019-04-21T03:52:58.895Z,4.00
2019-04-21T03:54:53.789Z,4.00
2019-04-21T03:56:59.200Z,8.00
2019-04-21T03:58:05.518Z,8.00
2019-04-21T03:59:48.897Z,12.00
2019-04-21T04:01:52.425Z,16.00
2019-04-21T04:02:55.238Z,16.00
2019-04-21T04:04:49.876Z,24.00
2019-04-21T04:05:59.659Z,32.00
2019-04-21T04:06:58.765Z,36.00
2019-04-21T04:07:49.949Z,44.00
2019-04-21T04:08:49.995Z,52.00
2019-04-21T04:09:44.757Z,56.00
2019-04-21T04:10:50.371Z,68.00
2019-04-21T04:11:44.187Z,80.00
2019-04-21T04:12:48.413Z,88.00
2019-04-21T04:13:56.313Z,104.00
2019-04-21T04:16:47.723Z,156.00
2019-04-21T04:17:40.460Z,180.00
2019-04-21T04:21:03.606Z,256.00
2019-04-21T04:21:47.756Z,284.00
2019-04-21T04:22:48.171Z,316.00
2019-04-21T04:23:45.622Z,352.00
2019-04-21T04:25:43.025Z,428.00
2019-04-21T04:27:01.519Z,472.00
2019-04-21T04:28:46.009Z,560.00
2019-04-21T04:29:39.929Z,612.00
2019-04-21T04:30:45.422Z,664.00
2019-04-21T04:31:53.454Z,716.00
2019-04-21T04:33:51.876Z,832.00
2019-04-21T04:35:52.541Z,956.00
2019-04-21T04:37:47.058Z,1092.00
2019-04-21T04:38:50.146Z,1160.00
2019-04-21T04:39:51.680Z,1232.00
2019-04-21T04:40:39.298Z,1308.00
2019-04-21T04:41:54.998Z,1384.00
2019-04-21T04:42:46.228Z,1464.00
2019-04-21T04:43:46.161Z,1540.00
2019-04-21T04:45:44.193Z,1704.00
2019-04-21T04:46:44.182Z,1792.00
2019-04-21T04:47:47.055Z,1876.00
2019-04-21T04:48:43.411Z,1964.00
2019-04-21T04:52:09.415Z,2236.00
2019-04-21T04:52:37.824Z,2332.00
2019-04-21T04:55:39.302Z,2612.00
2019-04-21T04:56:38.936Z,2712.00
2019-04-21T04:57:51.268Z,2808.00
2019-04-21T04:59:10.752Z,2904.00
2019-04-21T05:00:01.176Z,3004.00
2019-04-21T05:01:47.865Z,3200.00
2019-04-21T05:02:46.331Z,3300.00
2019-04-21T05:04:46.010Z,3496.00
2019-04-21T05:05:45.110Z,3588.00
2019-04-21T05:07:42.887Z,3776.00
2019-04-21T05:08:52.453Z,3876.00
2019-04-21T05:09:44.675Z,3968.00
2019-04-21T05:10:52.888Z,4068.00
2019-04-21T05:11:44.492Z,4172.00
2019-04-21T05:13:43.520Z,4376.00
2019-04-21T05:14:39.268Z,4472.00
2019-04-21T05:15:37.726Z,4584.00
2019-04-21T05:18:50.349Z,4876.00
2019-04-21T05:19:34.726Z,4972.00
2019-04-21T05:20:29.811Z,5064.00
2019-04-21T05:22:37.501Z,5256.00
2019-04-21T05:23:31.597Z,5348.00
2019-04-21T05:24:25.571Z,5440.00
2019-04-21T05:25:23.693Z,5532.00
2019-04-21T05:26:22.010Z,5628.00
2019-04-21T05:27:23.509Z,5720.00
2019-04-21T05:28:19.832Z,5812.00
2019-04-21T05:29:21.016Z,5904.00
2019-04-21T05:31:33.044Z,6084.00
2019-04-21T05:32:36.207Z,6176.00
2019-04-21T05:33:32.175Z,6264.00
2019-04-21T05:34:27.325Z,6368.00
2019-04-21T05:35:26.360Z,6444.00
2019-04-21T05:36:27.823Z,6524.00
2019-04-21T05:37:25.927Z,6616.00
2019-04-21T05:38:22.295Z,6708.00
2019-04-21T05:39:23.395Z,7080.00
2019-04-21T05:40:24.781Z,8032.00
2019-04-21T05:41:18.428Z,9124.00
2019-04-21T05:42:22.246Z,9764.00
2019-04-21T05:43:28.419Z,9864.00
2019-04-21T05:44:36.206Z,10040.00
2019-04-21T05:45:38.192Z,10288.00
2019-04-21T05:46:25.504Z,10588.00
2019-04-21T05:47:35.404Z,10780.00
2019-04-21T05:48:31.677Z,11076.00
2019-04-21T05:49:22.251Z,11308.00
2019-04-21T05:50:23.867Z,11580.00
2019-04-21T05:51:28.732Z,11816.00
2019-04-21T05:52:24.068Z,11936.00
2019-04-21T05:53:34.372Z,12156.00
2019-04-21T05:54:31.122Z,12608.00
2019-04-21T05:55:34.206Z,12848.00
2019-04-21T05:56:32.589Z,13048.00
2019-04-21T05:57:25.405Z,13412.00
2019-04-21T05:58:27.248Z,13732.00
2019-04-21T05:59:26.252Z,13800.00
2019-04-21T06:00:39.380Z,13844.00
2019-04-21T06:01:36.020Z,13860.00
2019-04-21T06:02:46.476Z,14368.00
2019-04-21T06:03:43.080Z,14508.00
2019-04-21T06:04:45.060Z,15024.00
2019-04-21T06:06:34.190Z,14836.00
2019-04-21T06:07:28.817Z,15456.00
2019-04-21T06:08:28.649Z,16064.00
2019-04-21T06:09:27.418Z,16864.00
2019-04-21T06:10:31.459Z,17184.00
2019-04-21T06:11:25.897Z,16448.00
2019-04-21T06:12:31.591Z,17312.00
2019-04-21T06:13:48.218Z,18304.00
2019-04-21T06:14:30.486Z,17920.00
2019-04-21T06:15:30.199Z,17984.00
2019-04-21T06:16:31.865Z,18176.00
2019-04-21T06:17:29.791Z,19008.00
2019-04-21T06:18:22.395Z,19680.00
2019-04-21T06:19:30.966Z,19616.00
2019-04-21T06:20:27.093Z,20192.00
2019-04-21T06:21:38.554Z,20192.00
2019-04-21T06:22:36.033Z,20608.00
2019-04-21T06:23:24.151Z,21312.00
2019-04-21T06:24:21.539Z,21568.00
2019-04-21T06:27:28.013Z,22784.00
2019-04-21T06:28:28.270Z,22688.00
2019-04-21T06:29:23.480Z,22752.00
2019-04-21T06:30:29.003Z,23008.00
2019-04-21T06:32:38.151Z,24192.00
2019-04-21T06:33:32.245Z,24672.00
2019-04-21T06:34:24.772Z,24704.00
2019-04-21T06:35:35.993Z,26272.00
2019-04-21T06:36:36.344Z,26496.00
2019-04-21T06:37:39.714Z,26048.00
2019-04-21T06:38:38.050Z,26080.00
2019-04-21T06:39:22.998Z,26368.00
2019-04-21T06:40:30.895Z,27680.00
2019-04-21T06:42:23.924Z,28320.00
2019-04-21T06:44:22.684Z,29280.00
2019-04-21T06:45:31.325Z,28384.00
2019-04-21T06:46:33.576Z,27840.00
2019-04-21T06:47:32.442Z,28896.00
2019-04-21T06:48:30.507Z,29792.00
2019-04-21T06:49:23.911Z,29152.00
2019-04-21T06:50:27.114Z,29312.00
2019-04-21T06:51:27.950Z,29152.00
2019-04-21T06:52:44.689Z,29376.00
2019-04-21T06:53:36.231Z,32160.00
2019-04-21T06:54:23.393Z,33792.00
2019-04-21T06:56:20.501Z,33152.00
2019-04-21T06:57:23.170Z,33376.00
2019-04-21T06:58:22.440Z,34848.00
2019-04-21T06:59:25.271Z,34656.00
2019-04-21T07:00:19.530Z,33888.00
2019-04-21T07:01:25.134Z,34240.00
2019-04-21T07:02:39.908Z,35520.00
2019-04-21T07:06:23.925Z,38304.00
2019-04-21T07:07:26.389Z,38496.00
2019-04-21T07:08:30.823Z,38208.00
2019-04-21T07:10:22.771Z,39264.00
2019-04-21T07:11:19.907Z,39552.00
2019-04-21T07:12:19.160Z,40992.00
2019-04-21T07:13:15.594Z,41376.00
2019-04-21T07:14:37.974Z,41216.00
2019-04-21T07:15:25.369Z,41472.00
2019-04-21T07:16:25.443Z,42304.00
2019-04-21T07:17:24.661Z,42048.00
2019-04-21T07:18:25.310Z,42976.00
2019-04-21T07:20:17.335Z,44256.00
2019-04-21T07:21:23.532Z,44704.00
2019-04-21T07:22:24.488Z,43776.00
2019-04-21T07:23:24.045Z,42240.00
2019-04-21T07:24:26.039Z,41216.00
2019-04-21T07:25:23.876Z,40288.00
2019-04-21T07:26:22.239Z,41472.00
2019-04-21T07:27:22.228Z,42528.00
2019-04-21T07:28:21.962Z,43136.00
2019-04-21T07:29:21.957Z,43488.00
2019-04-21T07:30:24.331Z,41216.00
2019-04-21T07:31:19.001Z,40480.00
2019-04-21T07:32:19.037Z,41728.00
2019-04-21T07:33:41.522Z,43200.00
2019-04-21T07:34:36.248Z,41216.00
2019-04-21T07:35:28.118Z,40832.00
2019-04-21T07:36:21.848Z,44064.00
2019-04-21T07:37:17.367Z,48096.00
2019-04-21T07:38:17.981Z,50880.00
2019-04-21T07:39:18.519Z,49376.00
2019-04-21T07:40:14.950Z,49472.00
2019-04-21T07:41:09.670Z,52032.00
2019-04-21T07:42:13.745Z,53024.00
2019-04-21T07:43:10.777Z,53760.00
2019-04-21T07:44:14.983Z,55072.00
2019-04-21T07:45:13.088Z,55296.00
2019-04-21T07:46:10.689Z,56032.00
2019-04-21T07:47:17.079Z,56032.00
2019-04-21T07:48:19.253Z,54688.00
2019-04-21T07:49:12.456Z,54592.00
2019-04-21T07:50:14.788Z,57088.00
2019-04-21T07:51:18.874Z,58144.00
2019-04-21T07:52:18.755Z,56576.00
2019-04-21T07:53:21.854Z,56160.00
2019-04-21T07:54:23.272Z,58432.00
2019-04-21T07:56:06.511Z,50400.00
2019-04-21T07:57:21.331Z,45312.00
2019-04-21T07:58:17.823Z,45024.00
2019-04-21T07:59:23.897Z,51552.00
2019-04-21T08:01:19.933Z,58272.00
2019-04-21T08:03:16.139Z,62112.00
2019-04-21T08:04:33.177Z,62944.00
2019-04-21T08:06:20.667Z,62816.00
2019-04-21T08:07:26.514Z,62560.00
2019-04-21T08:08:14.322Z,62336.00
2019-04-21T08:09:13.650Z,61248.00
2019-04-21T08:10:10.467Z,62496.00
2019-04-21T08:11:10.885Z,63872.00
2019-04-21T08:12:09.539Z,63232.00
2019-04-21T08:13:27.347Z,65184.00
2019-04-21T08:14:18.144Z,65312.00
2019-04-21T08:15:24.957Z,62240.00
2019-04-21T08:16:17.416Z,59488.00
2019-04-21T08:17:14.757Z,58560.00
2019-04-21T08:18:16.660Z,62272.00
2019-04-21T08:19:13.091Z,68832.00
2019-04-21T08:20:13.789Z,71104.00
2019-04-21T08:21:17.820Z,70400.00
2019-04-21T08:22:15.536Z,68832.00
2019-04-21T08:23:13.270Z,71040.00
2019-04-21T08:24:18.233Z,72800.00
2019-04-21T08:25:18.244Z,69952.00
2019-04-21T08:26:30.813Z,69376.00
2019-04-21T08:27:18.880Z,70784.00
2019-04-21T08:28:09.074Z,71456.00
2019-04-21T08:29:21.456Z,72512.00
2019-04-21T08:30:11.522Z,73056.00
2019-04-21T08:31:18.422Z,73312.00
2019-04-21T08:32:17.541Z,72544.00
2019-04-21T08:33:26.246Z,72256.00
2019-04-21T08:34:17.841Z,72928.00
2019-04-21T08:35:38.427Z,73920.00
2019-04-21T08:36:18.530Z,74016.00
2019-04-21T08:37:11.990Z,72864.00
2019-04-21T08:38:16.510Z,72416.00
2019-04-21T08:39:14.020Z,73408.00
2019-04-21T08:40:17.699Z,74624.00
2019-04-21T08:41:15.211Z,75616.00
2019-04-21T08:42:13.206Z,75968.00
2019-04-21T08:43:09.227Z,74624.00
2019-04-21T08:44:10.651Z,73472.00
2019-04-21T08:45:15.057Z,74752.00
2019-04-21T08:46:13.735Z,75680.00
2019-04-21T08:47:12.854Z,74432.00
2019-04-21T08:48:12.149Z,73728.00
2019-04-21T08:49:08.117Z,75328.00
2019-04-21T08:50:11.245Z,78496.00
2019-04-21T08:51:24.515Z,78976.00
2019-04-21T08:52:23.289Z,77184.00
2019-04-21T08:53:19.840Z,75520.00
2019-04-21T08:54:17.015Z,76384.00
2019-04-21T08:55:12.232Z,77120.00
2019-04-21T08:56:34.204Z,78336.00
2019-04-21T08:57:16.693Z,77888.00
2019-04-21T08:58:22.643Z,78272.00
2019-04-21T09:00:16.799Z,77632.00
2019-04-21T09:01:17.785Z,79232.00
2019-04-21T09:02:08.430Z,81056.00
2019-04-21T09:03:14.617Z,81344.00
2019-04-21T09:04:19.877Z,81120.00
2019-04-21T09:05:11.600Z,82560.00
2019-04-21T09:06:19.027Z,82272.00
2019-04-21T09:07:12.951Z,82368.00
2019-04-21T09:08:10.572Z,81664.00
2019-04-21T09:09:14.365Z,79936.00
2019-04-21T09:10:09.453Z,79168.00
2019-04-21T09:11:06.949Z,80448.00
2019-04-21T09:12:10.915Z,83264.00
2019-04-21T09:13:07.437Z,82912.00
2019-04-21T09:14:07.060Z,82848.00
2019-04-21T09:15:08.390Z,82144.00
2019-04-21T09:16:06.561Z,84640.00
2019-04-21T09:17:01.676Z,86048.00
2019-04-21T09:18:04.858Z,87072.00
2019-04-21T09:19:04.468Z,88096.00
2019-04-21T09:20:13.469Z,86112.00
2019-04-21T09:21:11.343Z,85760.00
2019-04-21T09:22:07.038Z,85504.00
2019-04-21T09:23:06.724Z,84288.00
2019-04-21T09:24:11.604Z,87104.00
2019-04-21T09:25:17.304Z,85312.00
2019-04-21T09:26:07.353Z,86336.00
2019-04-21T09:27:07.110Z,87744.00
2019-04-21T09:28:08.858Z,89152.00
2019-04-21T09:29:03.426Z,88736.00
2019-04-21T09:29:54.015Z,88320.00
2019-04-21T09:30:57.294Z,85888.00
2019-04-21T09:31:51.715Z,87104.00
2019-04-21T09:32:53.039Z,87488.00
2019-04-21T09:33:51.983Z,89568.00
2019-04-21T09:34:50.669Z,88064.00
2019-04-21T09:35:54.606Z,86272.00
2019-04-21T09:36:53.131Z,85184.00
2019-04-21T09:37:55.286Z,86016.00
2019-04-21T09:38:58.690Z,88192.00
2019-04-21T09:39:52.106Z,89440.00
2019-04-21T09:40:51.359Z,90208.00
2019-04-21T09:41:49.883Z,88928.00
2019-04-21T09:42:56.893Z,91712.00
2019-04-21T09:43:52.136Z,90080.00
2019-04-21T09:44:53.346Z,91040.00
2019-04-21T09:45:49.364Z,92224.00
2019-04-21T09:46:54.008Z,92224.00
2019-04-21T09:47:57.189Z,94720.00
2019-04-21T09:48:55.417Z,94368.00
2019-04-21T09:49:47.762Z,93568.00
2019-04-21T09:50:48.041Z,95040.00
2019-04-21T09:51:48.279Z,95040.00
2019-04-21T09:52:54.757Z,94944.00
2019-04-21T09:53:56.494Z,93920.00
2019-04-21T09:54:56.610Z,94592.00
2019-04-21T09:55:54.207Z,94784.00
2019-04-21T09:56:57.133Z,93408.00
2019-04-21T09:57:53.562Z,95264.00
2019-04-21T09:58:51.686Z,94528.00
2019-04-21T09:59:57.080Z,93792.00
2019-04-21T10:01:00.043Z,88256.00
2019-04-21T10:01:59.179Z,86496.00
2019-04-21T10:02:56.784Z,87200.00
2019-04-21T10:03:51.056Z,90752.00
2019-04-21T10:04:48.187Z,95392.00
2019-04-21T10:05:47.576Z,94912.00
2019-04-21T10:06:47.614Z,94432.00
2019-04-21T10:07:46.600Z,95648.00
2019-04-21T10:08:50.371Z,95744.00
2019-04-21T10:09:47.777Z,95456.00
2019-04-21T10:10:46.855Z,96544.00
2019-04-21T10:11:46.339Z,96000.00
2019-04-21T10:12:47.685Z,93984.00
2019-04-21T10:13:46.357Z,94304.00
2019-04-21T10:14:47.272Z,96512.00
2019-04-21T10:15:46.306Z,97056.00
2019-04-21T10:16:46.017Z,96704.00
2019-04-21T10:17:47.346Z,98912.00
2019-04-21T10:18:46.126Z,98816.00
2019-04-21T10:19:46.365Z,100736.00
2019-04-21T10:20:46.903Z,103136.00
2019-04-21T10:21:46.589Z,102080.00
2019-04-21T10:22:46.770Z,104032.00
2019-04-21T10:23:45.755Z,101152.00
2019-04-21T10:24:46.623Z,102304.00
2019-04-21T10:25:46.367Z,102880.00
2019-04-21T10:26:53.468Z,105280.00
2019-04-21T10:27:45.437Z,105568.00
2019-04-21T10:28:46.774Z,103584.00
2019-04-21T10:29:46.775Z,101216.00
2019-04-21T10:30:45.123Z,98144.00
2019-04-21T10:31:45.114Z,101120.00
2019-04-21T10:32:46.040Z,100992.00
2019-04-21T10:33:46.169Z,104992.00
2019-04-21T10:34:52.836Z,105120.00
2019-04-21T10:35:44.781Z,106400.00
2019-04-21T10:36:44.905Z,104928.00
2019-04-21T10:37:56.345Z,103392.00
2019-04-21T10:38:48.730Z,104832.00
2019-04-21T10:39:45.351Z,98592.00
2019-04-21T10:40:45.558Z,95936.00
2019-04-21T10:41:45.688Z,94528.00
2019-04-21T10:42:44.312Z,94176.00
2019-04-21T10:43:45.178Z,94912.00
2019-04-21T10:44:45.197Z,97376.00
2019-04-21T10:45:44.216Z,101088.00
2019-04-21T10:46:46.691Z,101792.00
2019-04-21T10:47:45.010Z,108640.00
2019-04-21T10:48:43.911Z,106464.00
2019-04-21T10:49:50.868Z,104064.00
2019-04-21T10:50:45.195Z,103072.00
2019-04-21T10:51:43.814Z,102592.00
2019-04-21T10:52:44.817Z,105600.00
2019-04-21T10:53:45.249Z,110208.00
2019-04-21T10:55:10.100Z,113888.00
2019-04-21T10:55:56.681Z,116672.00
2019-04-21T10:56:44.444Z,114464.00
2019-04-21T10:57:44.306Z,112064.00
2019-04-21T10:58:44.490Z,109888.00
2019-04-21T10:59:48.814Z,109856.00
2019-04-21T11:00:43.991Z,110208.00
2019-04-21T11:01:43.163Z,113184.00
2019-04-21T11:02:43.353Z,110784.00
2019-04-21T11:03:44.902Z,115424.00
2019-04-21T11:04:51.104Z,112352.00
2019-04-21T11:05:42.936Z,113504.00
2019-04-21T11:06:42.723Z,114208.00
2019-04-21T11:07:58.941Z,112128.00
2019-04-21T11:08:45.711Z,113568.00
2019-04-21T11:09:42.605Z,113344.00
2019-04-21T11:10:43.705Z,111200.00
2019-04-21T11:11:51.585Z,115360.00
2019-04-21T11:12:43.164Z,114880.00
2019-04-21T11:13:42.263Z,115072.00
2019-04-21T11:14:43.107Z,114784.00
2019-04-21T11:15:43.156Z,114176.00
2019-04-21T11:16:43.346Z,116480.00
2019-04-21T11:17:43.519Z,118048.00
2019-04-21T11:18:42.208Z,117792.00
2019-04-21T11:19:43.136Z,118432.00
2019-04-21T11:20:42.782Z,118208.00
2019-04-21T11:21:42.897Z,115520.00
2019-04-21T11:22:41.756Z,117856.00
2019-04-21T11:23:41.596Z,113408.00
2019-04-21T11:24:42.911Z,113952.00
2019-04-21T11:25:42.166Z,115296.00
2019-04-21T11:26:42.199Z,113472.00
2019-04-21T11:27:44.838Z,115200.00
2019-04-21T11:28:41.273Z,115712.00
2019-04-21T11:29:41.521Z,114400.00
2019-04-21T11:30:42.345Z,114304.00
2019-04-21T11:31:41.122Z,117920.00
2019-04-21T11:32:43.094Z,117952.00
2019-04-21T11:33:41.034Z,117344.00
2019-04-21T11:34:41.106Z,119488.00
2019-04-21T11:35:41.362Z,124000.00
2019-04-21T11:36:40.745Z,136032.00
2019-04-21T11:37:42.048Z,141792.00
2019-04-21T11:38:57.117Z,135104.00
2019-04-21T11:39:51.219Z,124288.00
2019-04-21T11:40:40.488Z,115424.00
2019-04-21T11:41:41.549Z,122144.00
2019-04-21T11:42:41.754Z,123616.00
2019-04-21T11:43:41.321Z,125888.00
2019-04-21T11:44:41.585Z,128256.00
2019-04-21T11:45:40.271Z,126688.00
2019-04-21T11:46:40.380Z,126048.00
2019-04-21T11:47:40.672Z,125152.00
2019-04-21T11:48:40.076Z,125568.00
2019-04-21T11:49:41.079Z,123616.00
2019-04-21T11:50:41.244Z,127072.00
2019-04-21T11:51:40.773Z,119040.00
2019-04-21T11:52:40.854Z,122112.00
2019-04-21T11:53:40.999Z,123552.00
2019-04-21T11:54:40.650Z,121824.00
2019-04-21T11:55:43.605Z,128992.00
2019-04-21T11:56:39.417Z,127200.00
2019-04-21T11:57:42.783Z,127392.00
2019-04-21T11:58:39.546Z,125088.00
2019-04-21T11:59:39.646Z,122848.00
2019-04-21T12:00:39.927Z,118208.00
2019-04-21T12:01:39.439Z,122528.00
2019-04-21T12:02:39.563Z,116960.00
2019-04-21T12:03:39.970Z,111712.00
2019-04-21T12:04:39.271Z,102560.00
2019-04-21T12:05:41.830Z,108960.00
2019-04-21T12:06:44.433Z,107168.00
2019-04-21T12:07:38.703Z,120896.00
2019-04-21T12:08:43.972Z,125440.00
2019-04-21T12:09:39.577Z,127200.00
2019-04-21T12:10:41.831Z,123872.00
2019-04-21T12:11:41.032Z,120000.00
2019-04-21T12:12:39.260Z,113504.00
2019-04-21T12:13:38.330Z,112640.00
2019-04-21T12:14:39.593Z,109664.00
2019-04-21T12:15:38.926Z,111840.00
2019-04-21T12:16:39.154Z,113248.00
2019-04-21T12:17:39.439Z,113088.00
2019-04-21T12:18:38.806Z,114528.00
2019-04-21T12:19:38.767Z,118464.00
2019-04-21T12:20:37.865Z,119040.00
2019-04-21T12:21:50.532Z,123328.00
2019-04-21T12:22:38.983Z,119744.00
2019-04-21T12:23:38.479Z,122048.00
2019-04-21T12:24:38.133Z,119328.00
2019-04-21T12:25:38.926Z,117984.00
2019-04-21T12:26:37.947Z,117632.00
2019-04-21T12:27:38.030Z,117984.00
2019-04-21T12:28:37.614Z,113792.00
2019-04-21T12:29:37.791Z,117056.00
2019-04-21T12:30:37.763Z,106976.00
2019-04-21T12:31:37.158Z,103552.00
2019-04-21T12:32:38.128Z,98112.00
2019-04-21T12:33:38.136Z,96416.00
2019-04-21T12:34:36.958Z,100320.00
2019-04-21T12:35:37.747Z,103456.00
2019-04-21T12:36:38.026Z,107840.00
2019-04-21T12:37:37.149Z,111776.00
2019-04-21T12:38:43.689Z,114336.00
2019-04-21T12:39:36.927Z,136096.00
2019-04-21T12:40:36.775Z,131936.00
2019-04-21T12:41:36.521Z,129824.00
2019-04-21T12:42:38.851Z,96512.00
2019-04-21T12:43:36.965Z,69984.00
2019-04-21T12:44:37.178Z,45120.00
2019-04-21T12:45:36.250Z,39040.00
2019-04-21T12:46:36.195Z,38304.00
2019-04-21T12:47:36.120Z,38304.00
2019-04-21T12:48:36.042Z,38432.00
2019-04-21T12:49:36.004Z,38784.00
2019-04-21T12:50:36.053Z,38368.00
2019-04-21T12:51:36.012Z,38976.00
2019-04-21T12:52:36.003Z,39584.00
2019-04-21T12:53:35.974Z,39904.00
2019-04-21T12:54:35.883Z,40256.00
2019-04-21T12:55:40.614Z,40896.00
2019-04-21T12:56:35.746Z,41664.00
2019-04-21T12:57:35.469Z,42368.00
2019-04-21T12:58:35.407Z,43232.00
2019-04-21T12:59:36.331Z,44032.00
2019-04-21T13:00:36.672Z,45280.00
2019-04-21T13:01:35.230Z,45728.00
2019-04-21T13:02:35.824Z,47008.00
2019-04-21T13:03:35.072Z,47552.00
2019-04-21T13:04:35.784Z,48480.00
2019-04-21T13:05:35.787Z,49728.00
2019-04-21T13:06:34.892Z,50912.00
2019-04-21T13:07:35.422Z,52128.00
2019-04-21T13:08:45.634Z,53888.00
2019-04-21T13:09:36.128Z,54848.00
2019-04-21T13:10:35.943Z,55904.00
2019-04-21T13:11:35.073Z,56992.00
2019-04-21T13:12:35.274Z,57376.00
2019-04-21T13:13:35.627Z,58592.00
2019-04-21T13:14:35.761Z,59584.00
2019-04-21T13:15:35.496Z,60384.00
2019-04-21T13:16:34.250Z,60640.00
2019-04-21T13:17:35.297Z,60544.00
2019-04-21T13:18:35.071Z,61024.00
2019-04-21T13:19:34.033Z,61504.00